createdAt,value
2018-02-11T00:00:39.101Z,99975.30
2018-02-11T00:01:41.571Z,99979.17
2018-02-11T00:02:44.085Z,99973.45
2018-02-11T00:03:46.580Z,99968.13
2018-02-11T00:04:49.080Z,99960.64
2018-02-11T00:05:51.552Z,99955.31
2018-02-11T00:06:54.033Z,99957.25
2018-02-11T00:07:56.502Z,99958.79
2018-02-11T00:08:59.012Z,99953.63
2018-02-11T00:10:01.497Z,99954.60
2018-02-11T00:11:03.974Z,99949.69
2018-02-11T00:12:06.458Z,99943.56
2018-02-11T00:13:08.936Z,99943.86
2018-02-11T00:14:11.449Z,99942.65
2018-02-11T00:15:13.933Z,99941.45
2018-02-11T00:16:16.399Z,99937.09
2018-02-11T00:17:18.885Z,99934.52
2018-02-11T00:18:21.365Z,99933.15
2018-02-11T00:19:23.876Z,99935.25
2018-02-11T00:20:26.340Z,99935.02
2018-02-11T00:21:28.832Z,99928.72
2018-02-11T00:22:31.351Z,99935.34
2018-02-11T00:23:33.833Z,99932.92
2018-02-11T00:24:36.344Z,99931.72
2018-02-11T00:25:38.832Z,99929.70
2018-02-11T00:26:41.301Z,99932.45
2018-02-11T00:27:43.789Z,99926.73
2018-02-11T00:28:46.285Z,99926.09
2018-02-11T00:29:48.781Z,99925.69
2018-02-11T00:30:51.246Z,99916.09
2018-02-11T00:31:53.714Z,99912.68
2018-02-11T00:32:56.174Z,99911.88
2018-02-11T00:33:58.692Z,99909.46
2018-02-11T00:35:01.201Z,99912.38
2018-02-11T00:36:03.670Z,99915.67
2018-02-11T00:37:06.148Z,99907.62
2018-02-11T00:38:09.586Z,99908.75
2018-02-11T00:39:12.049Z,99911.66
2018-02-11T00:40:14.532Z,99913.19
2018-02-11T00:41:17.021Z,99910.61
2018-02-11T00:42:19.490Z,99909.81
2018-02-11T00:43:21.981Z,99913.28
2018-02-11T00:44:24.443Z,99911.10
2018-02-11T00:45:26.925Z,99910.30
2018-02-11T00:46:29.404Z,99916.91
2018-02-11T00:47:31.888Z,99905.31
2018-02-11T00:48:34.358Z,99906.84
2018-02-11T00:49:36.837Z,99907.81
2018-02-11T00:50:39.307Z,99899.33
2018-02-11T00:51:41.797Z,99893.60
2018-02-11T00:52:44.270Z,99897.48
2018-02-11T00:53:46.753Z,99887.08
2018-02-11T00:54:49.241Z,99890.95
2018-02-11T00:55:51.706Z,99890.72
2018-02-11T00:56:54.184Z,99884.03
2018-02-11T00:57:56.651Z,99884.19
2018-02-11T00:58:59.133Z,99880.65
2018-02-11T01:00:01.618Z,99876.70
2018-02-11T01:01:04.128Z,99878.80
2018-02-11T01:02:06.620Z,99872.52
2018-02-11T01:03:09.091Z,99877.20
2018-02-11T01:04:11.580Z,99875.59
2018-02-11T01:05:14.057Z,99871.64
2018-02-11T01:06:16.536Z,99864.55
2018-02-11T01:07:19.018Z,99864.72
2018-02-11T01:08:21.536Z,99861.17
2018-02-11T01:09:24.024Z,99857.23
2018-02-11T01:10:26.500Z,99859.13
2018-02-11T01:11:28.981Z,99855.59
2018-02-11T01:12:31.449Z,99857.52
2018-02-11T01:13:33.914Z,99857.69
2018-02-11T01:14:36.378Z,99853.34
2018-02-11T01:15:38.852Z,99846.66
2018-02-11T01:16:41.388Z,99844.88
2018-02-11T01:17:43.855Z,99840.13
2018-02-11T01:18:46.332Z,99841.09
2018-02-11T01:19:48.795Z,99832.64
2018-02-11T01:20:51.275Z,99833.77
2018-02-11T01:21:53.764Z,99833.37
2018-02-11T01:22:56.237Z,99830.80
2018-02-11T01:23:58.733Z,99832.73
2018-02-11T01:25:01.199Z,99831.13
2018-02-11T01:26:03.676Z,99829.35
2018-02-11T01:27:06.147Z,99824.44
2018-02-11T01:28:08.667Z,99827.18
2018-02-11T01:29:11.136Z,99828.31
2018-02-11T01:30:13.632Z,99823.00
2018-02-11T01:31:16.094Z,99819.45
2018-02-11T01:32:18.573Z,99822.77
2018-02-11T01:33:21.061Z,99814.14
2018-02-11T01:34:23.527Z,99815.80
2018-02-11T01:35:26.009Z,99810.49
2018-02-11T01:36:29.233Z,99802.84
2018-02-11T01:37:31.722Z,99807.52
2018-02-11T01:38:34.200Z,99798.49
2018-02-11T01:39:36.682Z,99796.32
2018-02-11T01:40:39.174Z,99791.98
2018-02-11T01:41:41.653Z,99780.62
2018-02-11T01:42:44.128Z,99780.78
2018-02-11T01:43:46.652Z,99776.44
2018-02-11T01:44:49.127Z,99777.97
2018-02-11T01:45:51.601Z,99775.23
2018-02-11T01:46:54.062Z,99773.63
2018-02-11T01:47:56.523Z,99764.20
2018-02-11T01:48:58.986Z,99768.31
2018-02-11T01:50:13.312Z,99758.48
2018-02-11T01:51:15.783Z,99758.09
2018-02-11T01:52:18.273Z,99747.86
2018-02-11T01:53:20.738Z,99745.69
2018-02-11T01:54:23.202Z,99745.28
2018-02-11T01:55:25.681Z,99742.31
2018-02-11T01:56:28.142Z,99740.30
2018-02-11T01:57:30.645Z,99732.63
2018-02-11T01:58:33.133Z,99736.73
2018-02-11T01:59:35.602Z,99726.91
2018-02-11T02:00:38.079Z,99719.27
2018-02-11T02:01:40.559Z,99722.97
2018-02-11T02:02:43.065Z,99706.70
2018-02-11T02:03:45.541Z,99704.93
2018-02-11T02:04:48.028Z,99705.50
2018-02-11T02:05:50.497Z,99697.05
2018-02-11T02:06:52.975Z,99688.03
2018-02-11T02:07:55.462Z,99681.34
2018-02-11T02:08:57.923Z,99679.73
2018-02-11T02:10:00.401Z,99668.55
2018-02-11T02:11:02.871Z,99666.22
2018-02-11T02:12:05.338Z,99658.33
2018-02-11T02:13:07.827Z,99653.50
2018-02-11T02:14:10.291Z,99655.64
2018-02-11T02:15:12.758Z,99652.65
2018-02-11T02:16:15.226Z,99648.42
2018-02-11T02:17:17.771Z,99647.09
2018-02-11T02:18:20.277Z,99653.75
2018-02-11T02:19:22.756Z,99641.39
2018-02-11T02:20:25.219Z,99642.56
2018-02-11T02:21:27.701Z,99641.02
2018-02-11T02:22:30.166Z,99639.91
2018-02-11T02:23:32.654Z,99630.35
2018-02-11T02:24:35.145Z,99622.05
2018-02-11T02:25:37.629Z,99613.50
2018-02-11T02:26:40.116Z,99620.35
2018-02-11T02:27:42.583Z,99621.09
2018-02-11T02:28:45.088Z,99616.34
2018-02-11T02:29:47.573Z,99614.88
2018-02-11T02:30:50.058Z,99611.91
2018-02-11T02:31:52.540Z,99613.37
2018-02-11T02:32:55.010Z,99607.42
2018-02-11T02:33:57.547Z,99607.53
2018-02-11T02:35:00.014Z,99605.63
2018-02-11T02:36:02.513Z,99607.91
2018-02-11T02:37:04.996Z,99602.89
2018-02-11T02:38:07.473Z,99600.66
2018-02-11T02:39:09.976Z,99609.20
2018-02-11T02:40:12.451Z,99607.54
2018-02-11T02:41:14.927Z,99602.56
2018-02-11T02:42:17.390Z,99598.55
2018-02-11T02:43:19.881Z,99593.38
2018-02-11T02:44:22.385Z,99596.45
2018-02-11T02:45:24.877Z,99588.97
2018-02-11T02:46:27.350Z,99584.79
2018-02-11T02:47:29.834Z,99593.34
2018-02-11T02:48:32.323Z,99576.67
2018-02-11T02:49:34.814Z,99580.14
2018-02-11T02:50:37.286Z,99567.19
2018-02-11T02:51:39.755Z,99566.55
2018-02-11T02:52:42.242Z,99561.24
2018-02-11T02:53:44.724Z,99561.01
2018-02-11T02:54:47.210Z,99557.63
2018-02-11T02:55:49.699Z,99552.29
2018-02-11T02:56:52.187Z,99553.42
2018-02-11T02:57:54.651Z,99552.23
2018-02-11T02:58:57.128Z,99548.69
2018-02-11T02:59:59.648Z,99552.39
2018-02-11T03:01:02.148Z,99546.84
2018-02-11T03:02:04.619Z,99541.37
2018-02-11T03:03:07.105Z,99536.06
2018-02-11T03:04:09.582Z,99531.31
2018-02-11T03:05:12.063Z,99525.27
2018-02-11T03:06:14.530Z,99530.91
2018-02-11T03:07:17.008Z,99521.73
2018-02-11T03:08:19.489Z,99524.23
2018-02-11T03:09:21.969Z,99523.44
2018-02-11T03:10:24.468Z,99515.79
2018-02-11T03:11:26.944Z,99505.41
2018-02-11T03:12:29.403Z,99501.86
2018-02-11T03:13:31.871Z,99505.00
2018-02-11T03:14:34.340Z,99498.32
2018-02-11T03:15:36.837Z,99502.83
2018-02-11T03:16:39.344Z,99500.66
2018-02-11T03:17:41.802Z,99496.32
2018-02-11T03:18:44.278Z,99496.32
2018-02-11T03:19:46.767Z,99492.95
2018-02-11T03:20:49.263Z,99487.23
2018-02-11T03:21:51.787Z,99486.67
2018-02-11T03:22:54.258Z,99477.48
2018-02-11T03:23:56.734Z,99481.92
2018-02-11T03:24:59.212Z,99478.22
2018-02-11T03:26:01.707Z,99476.98
2018-02-11T03:27:04.185Z,99469.74
2018-02-11T03:28:06.670Z,99472.25
2018-02-11T03:29:09.135Z,99466.77
2018-02-11T03:30:11.603Z,99459.52
2018-02-11T03:31:14.124Z,99446.97
2018-02-11T03:32:16.587Z,99448.34
2018-02-11T03:33:19.071Z,99451.25
2018-02-11T03:34:21.545Z,99444.00
2018-02-11T03:35:24.029Z,99441.43
2018-02-11T03:36:26.517Z,99438.30
2018-02-11T03:37:29.000Z,99435.33
2018-02-11T03:38:31.463Z,99439.27
2018-02-11T03:39:33.943Z,99428.48
2018-02-11T03:40:36.416Z,99434.12
2018-02-11T03:41:38.902Z,99433.32
2018-02-11T03:42:41.380Z,99431.15
2018-02-11T03:43:43.847Z,99418.59
2018-02-11T03:44:46.314Z,99427.38
2018-02-11T03:45:48.779Z,99420.94
2018-02-11T03:46:51.285Z,99422.88
2018-02-11T03:47:53.765Z,99417.97
2018-02-11T03:48:56.238Z,99408.22
2018-02-11T03:49:58.702Z,99415.06
2018-02-11T03:51:01.186Z,99415.45
2018-02-11T03:52:03.692Z,99422.30
2018-02-11T03:53:06.171Z,99415.06
2018-02-11T03:54:08.649Z,99404.91
2018-02-11T03:55:11.110Z,99405.48
2018-02-11T03:56:13.571Z,99391.39
2018-02-11T03:57:16.096Z,99394.30
2018-02-11T03:58:18.566Z,99390.75
2018-02-11T03:59:21.027Z,99388.02
2018-02-11T04:00:23.501Z,99385.84
2018-02-11T04:01:25.967Z,99383.51
2018-02-11T04:02:28.455Z,99380.55
2018-02-11T04:03:30.940Z,99375.86
2018-02-11T04:04:33.406Z,99373.12
2018-02-11T04:05:35.880Z,99365.88
2018-02-11T04:06:38.356Z,99377.00
2018-02-11T04:07:40.838Z,99366.05
2018-02-11T04:08:43.323Z,99367.25
2018-02-11T04:09:45.803Z,99366.63
2018-02-11T04:10:48.262Z,99362.52
2018-02-11T04:11:50.740Z,99364.69
2018-02-11T04:12:53.243Z,99363.88
2018-02-11T04:13:55.741Z,99361.72
2018-02-11T04:14:58.209Z,99357.04
2018-02-11T04:16:00.672Z,99356.64
2018-02-11T04:17:03.156Z,99365.42
2018-02-11T04:18:05.642Z,99354.07
2018-02-11T04:19:08.121Z,99362.85
2018-02-11T04:20:10.597Z,99362.28
2018-02-11T04:21:13.058Z,99360.11
2018-02-11T04:22:15.526Z,99354.64
2018-02-11T04:23:18.021Z,99352.84
2018-02-11T04:24:20.487Z,99345.16
2018-02-11T04:25:22.954Z,99350.10
2018-02-11T04:26:25.410Z,99342.42
2018-02-11T04:27:27.889Z,99337.52
2018-02-11T04:28:30.389Z,99337.52
2018-02-11T04:29:32.873Z,99332.22
2018-02-11T04:30:35.338Z,99329.48
2018-02-11T04:31:37.813Z,99327.31
2018-02-11T04:32:40.278Z,99317.16
2018-02-11T04:33:42.788Z,99316.19
2018-02-11T04:34:45.264Z,99318.92
2018-02-11T04:35:47.727Z,99314.66
2018-02-11T04:36:50.187Z,99316.59
2018-02-11T04:37:52.671Z,99311.52
2018-02-11T04:38:55.168Z,99315.05
2018-02-11T04:39:57.626Z,99309.34
2018-02-11T04:41:00.095Z,99315.05
2018-02-11T04:42:02.568Z,99309.34
2018-02-11T04:43:05.049Z,99312.48
2018-02-11T04:44:07.557Z,99311.91
2018-02-11T04:45:10.040Z,99309.58
2018-02-11T04:46:12.516Z,99306.73
2018-02-11T04:47:14.979Z,99303.56
2018-02-11T04:48:17.450Z,99305.36
2018-02-11T04:49:19.948Z,99304.39
2018-02-11T04:50:22.430Z,99295.35
2018-02-11T04:51:24.936Z,99290.41
2018-02-11T04:52:27.417Z,99280.03
2018-02-11T04:53:29.878Z,99280.44
2018-02-11T04:54:32.363Z,99274.42
2018-02-11T04:55:34.831Z,99274.42
2018-02-11T04:56:37.321Z,99268.80
2018-02-11T04:57:39.800Z,99271.55
2018-02-11T04:58:42.275Z,99270.72
2018-02-11T04:59:44.768Z,99267.98
2018-02-11T05:00:47.236Z,99265.67
2018-02-11T05:01:49.713Z,99264.30
2018-02-11T05:02:52.178Z,99261.13
2018-02-11T05:03:54.648Z,99256.09
2018-02-11T05:04:57.159Z,99258.00
2018-02-11T05:05:59.637Z,99255.80
2018-02-11T05:07:02.113Z,99259.77
2018-02-11T05:08:04.594Z,99264.18
2018-02-11T05:09:07.073Z,99263.78
2018-02-11T05:10:09.565Z,99261.61
2018-02-11T05:11:12.056Z,99255.17
2018-02-11T05:12:14.535Z,99250.66
2018-02-11T05:13:16.994Z,99253.97
2018-02-11T05:14:19.454Z,99254.54
2018-02-11T05:15:21.938Z,99260.02
2018-02-11T05:16:24.408Z,99247.06
2018-02-11T05:17:26.873Z,99247.47
2018-02-11T05:18:29.340Z,99246.84
2018-02-11T05:19:31.816Z,99240.56
2018-02-11T05:20:34.307Z,99240.56
2018-02-11T05:21:36.782Z,99238.39
2018-02-11T05:22:39.260Z,99237.42
2018-02-11T05:23:41.742Z,99236.05
2018-02-11T05:24:44.201Z,99225.67
2018-02-11T05:25:46.701Z,99230.98
2018-02-11T05:26:49.181Z,99237.59
2018-02-11T05:27:51.642Z,99224.88
2018-02-11T05:28:54.098Z,99228.02
2018-02-11T05:29:56.563Z,99215.87
2018-02-11T05:30:59.056Z,99227.22
2018-02-11T05:32:01.536Z,99225.22
2018-02-11T05:33:04.002Z,99226.19
2018-02-11T05:34:06.475Z,99223.05
2018-02-11T05:35:08.938Z,99219.74
2018-02-11T05:36:11.440Z,99218.55
2018-02-11T05:37:13.902Z,99222.25
2018-02-11T05:38:16.366Z,99219.52
2018-02-11T05:39:18.834Z,99213.81
2018-02-11T05:40:21.313Z,99210.84
2018-02-11T05:41:23.813Z,99211.24
2018-02-11T05:42:26.271Z,99212.61
2018-02-11T05:43:28.744Z,99217.45
2018-02-11T05:44:31.225Z,99214.32
2018-02-11T05:45:33.682Z,99206.68
2018-02-11T05:46:36.166Z,99211.19
2018-02-11T05:47:38.628Z,99206.28
2018-02-11T05:48:41.117Z,99207.42
2018-02-11T05:49:43.620Z,99205.88
2018-02-11T05:50:46.089Z,99214.09
2018-02-11T05:51:48.570Z,99208.05
2018-02-11T05:52:51.035Z,99215.29
2018-02-11T05:53:53.507Z,99207.25
2018-02-11T05:54:55.971Z,99201.77
2018-02-11T05:55:58.445Z,99204.11
2018-02-11T05:57:00.931Z,99209.02
2018-02-11T05:58:03.394Z,99204.11
2018-02-11T05:59:05.854Z,99198.38
2018-02-11T06:00:08.336Z,99201.69
2018-02-11T06:01:10.818Z,99199.52
2018-02-11T06:02:13.324Z,99199.69
2018-02-11T06:03:15.790Z,99195.58
2018-02-11T06:04:18.308Z,99190.68
2018-02-11T06:05:20.822Z,99203.63
2018-02-11T06:06:23.302Z,99191.48
2018-02-11T06:07:25.786Z,99194.61
2018-02-11T06:08:28.265Z,99194.05
2018-02-11T06:09:30.731Z,99196.38
2018-02-11T06:10:33.207Z,99192.45
2018-02-11T06:11:35.678Z,99186.74
2018-02-11T06:12:38.180Z,99190.28
2018-02-11T06:13:40.645Z,99193.59
2018-02-11T06:14:43.126Z,99201.80
2018-02-11T06:15:45.591Z,99195.35
2018-02-11T06:16:48.077Z,99198.48
2018-02-11T06:17:50.576Z,99193.41
2018-02-11T06:18:53.060Z,99194.38
2018-02-11T06:19:55.518Z,99195.92
2018-02-11T06:20:57.987Z,99195.69
2018-02-11T06:22:00.454Z,99199.56
2018-02-11T06:23:02.956Z,99196.83
2018-02-11T06:24:05.433Z,99198.77
2018-02-11T06:25:07.916Z,99200.87
2018-02-11T06:26:10.404Z,99205.55
2018-02-11T06:27:12.891Z,99206.92
2018-02-11T06:28:15.396Z,99204.34
2018-02-11T06:29:17.877Z,99205.48
2018-02-11T06:30:20.357Z,99200.59
2018-02-11T06:31:22.815Z,99202.92
2018-02-11T06:32:25.288Z,99205.66
2018-02-11T06:33:27.779Z,99201.16
2018-02-11T06:34:30.247Z,99198.02
2018-02-11T06:35:32.727Z,99200.92
2018-02-11T06:36:35.200Z,99202.69
2018-02-11T06:37:37.666Z,99198.36
2018-02-11T06:38:40.158Z,99199.16
2018-02-11T06:39:42.629Z,99191.92
2018-02-11T06:40:45.091Z,99193.86
2018-02-11T06:41:47.572Z,99195.79
2018-02-11T06:42:50.035Z,99197.16
2018-02-11T06:43:52.532Z,99197.96
2018-02-11T06:44:55.012Z,99201.09
2018-02-11T06:45:57.475Z,99195.39
2018-02-11T06:46:59.939Z,99194.59
2018-02-11T06:48:02.398Z,99193.39
2018-02-11T06:49:04.887Z,99195.30
2018-02-11T06:50:07.364Z,99190.39
2018-02-11T06:51:09.844Z,99188.41
2018-02-11T06:52:12.321Z,99198.38
2018-02-11T06:53:14.808Z,99195.81
2018-02-11T06:54:17.301Z,99191.30
2018-02-11T06:55:19.781Z,99195.17
2018-02-11T06:56:22.246Z,99190.84
2018-02-11T06:57:24.710Z,99192.78
2018-02-11T06:58:27.291Z,99192.78
2018-02-11T06:59:29.779Z,99193.35
2018-02-11T07:00:32.307Z,99193.52
2018-02-11T07:01:34.784Z,99188.22
2018-02-11T07:02:37.261Z,99191.92
2018-02-11T07:03:39.736Z,99193.46
2018-02-11T07:04:42.232Z,99193.86
2018-02-11T07:05:44.717Z,99190.95
2018-02-11T07:06:47.194Z,99196.25
2018-02-11T07:07:49.682Z,99188.84
2018-02-11T07:08:52.171Z,99195.64
2018-02-11T07:09:54.676Z,99196.77
2018-02-11T07:10:57.151Z,99199.75
2018-02-11T07:11:59.619Z,99193.22
2018-02-11T07:13:02.100Z,99195.73
2018-02-11T07:14:04.580Z,99199.75
2018-02-11T07:15:07.085Z,99189.48
2018-02-11T07:16:09.642Z,99190.84
2018-02-11T07:17:12.110Z,99171.56
2018-02-11T07:18:14.585Z,99182.98
2018-02-11T07:19:17.042Z,99181.56
2018-02-11T07:20:19.522Z,99188.80
2018-02-11T07:21:21.987Z,99179.22
2018-02-11T07:22:24.451Z,99186.55
2018-02-11T07:23:26.935Z,99184.91
2018-02-11T07:24:29.399Z,99192.77
2018-02-11T07:25:31.899Z,99188.56
2018-02-11T07:26:34.376Z,99193.70
2018-02-11T07:27:36.844Z,99196.89
2018-02-11T07:28:39.325Z,99194.78
2018-02-11T07:29:41.800Z,99193.64
2018-02-11T07:30:44.284Z,99195.24
2018-02-11T07:31:46.762Z,99195.41
2018-02-11T07:32:49.236Z,99194.78
2018-02-11T07:33:51.708Z,99198.09
2018-02-11T07:34:54.188Z,99190.51
2018-02-11T07:35:56.688Z,99189.75
2018-02-11T07:36:59.160Z,99187.24
2018-02-11T07:38:01.636Z,99187.83
2018-02-11T07:39:04.121Z,99194.56
2018-02-11T07:40:06.597Z,99184.23
2018-02-11T07:41:09.083Z,99187.59
2018-02-11T07:42:11.560Z,99178.30
2018-02-11T07:43:14.040Z,99187.91
2018-02-11T07:44:16.523Z,99183.81
2018-02-11T07:45:19.181Z,99185.01
2018-02-11T07:46:21.672Z,99180.09
2018-02-11T07:47:24.134Z,99183.41
2018-02-11T07:48:26.612Z,99178.95
2018-02-11T07:49:29.071Z,99178.67
2018-02-11T07:50:31.530Z,99174.80
2018-02-11T07:51:34.032Z,99172.17
2018-02-11T07:52:36.590Z,99176.27
2018-02-11T07:53:39.065Z,99172.85
2018-02-11T07:54:41.548Z,99174.62
2018-02-11T07:55:44.029Z,99168.72
2018-02-11T07:56:46.514Z,99174.88
2018-02-11T07:57:48.982Z,99179.16
2018-02-11T07:58:51.443Z,99182.41
2018-02-11T07:59:53.903Z,99178.87
2018-02-11T08:00:56.380Z,99182.20
2018-02-11T08:01:58.876Z,99182.89
2018-02-11T08:03:01.342Z,99181.06
2018-02-11T08:04:03.807Z,99183.35
2018-02-11T08:05:06.266Z,99190.56
2018-02-11T08:06:08.776Z,99183.38
2018-02-11T08:07:11.271Z,99187.25
2018-02-11T08:08:13.745Z,99186.11
2018-02-11T08:09:16.211Z,99189.31
2018-02-11T08:10:18.674Z,99185.59
2018-02-11T08:11:21.152Z,99186.00
2018-02-11T08:12:23.639Z,99187.08
2018-02-11T08:13:26.102Z,99187.24
2018-02-11T08:14:28.562Z,99182.62
2018-02-11T08:15:31.049Z,99191.34
2018-02-11T08:16:33.529Z,99189.45
2018-02-11T08:17:36.020Z,99181.95
2018-02-11T08:18:38.487Z,99189.58
2018-02-11T08:19:40.968Z,99188.10
2018-02-11T08:20:43.434Z,99188.56
2018-02-11T08:21:45.918Z,99186.91
2018-02-11T08:22:48.408Z,99186.72
2018-02-11T08:23:50.875Z,99181.14
2018-02-11T08:24:53.347Z,99187.44
2018-02-11T08:25:55.829Z,99186.06
2018-02-11T08:26:58.305Z,99177.28
2018-02-11T08:28:00.807Z,99180.12
2018-02-11T08:29:03.270Z,99184.80
2018-02-11T08:30:05.739Z,99185.05
2018-02-11T08:31:08.207Z,99186.59
2018-02-11T08:32:10.670Z,99186.52
2018-02-11T08:33:13.193Z,99200.26
2018-02-11T08:34:15.659Z,99198.07
2018-02-11T08:35:18.118Z,99199.27
2018-02-11T08:36:20.599Z,99196.25
2018-02-11T08:37:23.080Z,99206.34
2018-02-11T08:38:25.582Z,99201.19
2018-02-11T08:39:28.069Z,99202.56
2018-02-11T08:40:30.556Z,99204.78
2018-02-11T08:41:33.037Z,99213.24
2018-02-11T08:42:35.502Z,99214.26
2018-02-11T08:43:38.005Z,99209.07
2018-02-11T08:44:40.475Z,99199.39
2018-02-11T08:45:42.947Z,99199.95
2018-02-11T08:46:45.411Z,99203.76
2018-02-11T08:47:47.903Z,99208.06
2018-02-11T08:48:50.381Z,99205.45
2018-02-11T08:49:52.861Z,99200.09
2018-02-11T08:50:55.337Z,99200.43
2018-02-11T08:51:57.806Z,99203.00
2018-02-11T08:53:00.303Z,99200.01
2018-02-11T08:54:02.859Z,99202.36
2018-02-11T08:55:05.338Z,99205.29
2018-02-11T08:56:07.813Z,99204.38
2018-02-11T08:57:10.290Z,99204.67
2018-02-11T08:58:12.783Z,99197.77
2018-02-11T08:59:15.282Z,99205.39
2018-02-11T09:00:17.764Z,99197.64
2018-02-11T09:01:20.230Z,99193.13
2018-02-11T09:02:22.713Z,99199.64
2018-02-11T09:03:25.197Z,99200.98
2018-02-11T09:04:27.691Z,99199.25
2018-02-11T09:05:30.178Z,99200.77
2018-02-11T09:06:32.643Z,99203.63
2018-02-11T09:07:35.110Z,99198.59
2018-02-11T09:08:37.574Z,99197.59
2018-02-11T09:09:40.092Z,99193.64
2018-02-11T09:10:42.546Z,99194.04
2018-02-11T09:11:45.017Z,99199.28
2018-02-11T09:12:47.527Z,99195.38
2018-02-11T09:13:49.978Z,99197.84
2018-02-11T09:14:52.472Z,99197.77
2018-02-11T09:15:54.934Z,99197.05
2018-02-11T09:16:57.390Z,99199.28
2018-02-11T09:17:59.861Z,99204.34
2018-02-11T09:19:02.317Z,99204.92
2018-02-11T09:20:04.808Z,99204.75
2018-02-11T09:21:07.285Z,99206.02
2018-02-11T09:22:09.760Z,99198.48
2018-02-11T09:23:12.239Z,99198.85
2018-02-11T09:24:14.714Z,99197.19
2018-02-11T09:25:17.215Z,99203.23
2018-02-11T09:26:19.697Z,99200.55
2018-02-11T09:27:22.212Z,99195.05
2018-02-11T09:28:25.407Z,99195.45
2018-02-11T09:29:27.867Z,99196.75
2018-02-11T09:30:30.356Z,99199.28
2018-02-11T09:31:32.818Z,99200.98
2018-02-11T09:32:35.330Z,99192.05
2018-02-11T09:33:37.799Z,99187.23
2018-02-11T09:34:40.272Z,99193.67
2018-02-11T09:35:42.755Z,99193.02
2018-02-11T09:36:45.233Z,99189.55
2018-02-11T09:37:47.705Z,99192.63
2018-02-11T09:38:50.163Z,99190.81
2018-02-11T09:39:52.633Z,99188.49
2018-02-11T09:40:55.150Z,99185.88
2018-02-11T09:41:57.618Z,99189.02
2018-02-11T09:43:00.083Z,99188.05
2018-02-11T09:44:02.561Z,99188.69
2018-02-11T09:45:05.074Z,99183.19
2018-02-11T09:46:07.584Z,99192.57
2018-02-11T09:47:10.069Z,99194.09
2018-02-11T09:48:12.541Z,99195.44
2018-02-11T09:49:14.994Z,99197.91
2018-02-11T09:50:17.459Z,99190.38
2018-02-11T09:51:19.943Z,99194.47
2018-02-11T09:52:22.418Z,99198.16
2018-02-11T09:53:24.888Z,99191.89
2018-02-11T09:54:27.357Z,99192.58
2018-02-11T09:55:29.814Z,99192.53
2018-02-11T09:56:32.290Z,99195.02
2018-02-11T09:57:34.761Z,99194.00
2018-02-11T09:58:37.255Z,99193.13
2018-02-11T09:59:39.715Z,99192.33
2018-02-11T10:00:42.170Z,99194.02
2018-02-11T10:01:44.665Z,99195.97
2018-02-11T10:02:47.138Z,99193.77
2018-02-11T10:03:49.607Z,99190.04
2018-02-11T10:04:52.090Z,99188.59
2018-02-11T10:05:54.547Z,99196.57
2018-02-11T10:06:57.048Z,99195.09
2018-02-11T10:07:59.503Z,99190.31
2018-02-11T10:09:01.964Z,99191.91
2018-02-11T10:10:04.436Z,99196.08
2018-02-11T10:11:06.890Z,99197.18
2018-02-11T10:12:09.394Z,99195.66
2018-02-11T10:13:11.865Z,99195.48
2018-02-11T10:14:14.322Z,99192.55
2018-02-11T10:15:16.781Z,99194.79
2018-02-11T10:16:19.252Z,99198.55
2018-02-11T10:17:21.765Z,99196.62
2018-02-11T10:18:24.973Z,99191.70
2018-02-11T10:19:27.431Z,99195.90
2018-02-11T10:20:29.890Z,99192.13
2018-02-11T10:21:32.375Z,99199.56
2018-02-11T10:22:34.874Z,99193.81
2018-02-11T10:23:37.344Z,99196.10
2018-02-11T10:24:39.802Z,99197.17
2018-02-11T10:25:42.273Z,99196.95
2018-02-11T10:26:44.748Z,99200.17
2018-02-11T10:27:47.257Z,99200.45
2018-02-11T10:28:49.710Z,99197.98
2018-02-11T10:29:52.167Z,99195.68
2018-02-11T10:30:54.623Z,99197.43
2018-02-11T10:31:57.079Z,99195.75
2018-02-11T10:32:59.577Z,99195.41
2018-02-11T10:34:02.031Z,99196.09
2018-02-11T10:35:04.487Z,99197.86
2018-02-11T10:36:06.957Z,99206.06
2018-02-11T10:37:09.428Z,99201.53
2018-02-11T10:38:11.924Z,99201.47
2018-02-11T10:39:14.397Z,99214.42
2018-02-11T10:40:16.882Z,99210.44
2018-02-11T10:41:19.343Z,99215.15
2018-02-11T10:42:21.800Z,99214.08
2018-02-11T10:43:24.301Z,99216.71
2018-02-11T10:44:26.759Z,99218.98
2018-02-11T10:45:29.217Z,99213.72
2018-02-11T10:46:31.679Z,99213.29
2018-02-11T10:47:34.148Z,99216.84
2018-02-11T10:48:36.645Z,99216.94
2018-02-11T10:49:39.102Z,99213.02
2018-02-11T10:50:41.572Z,99219.50
2018-02-11T10:51:44.031Z,99216.63
2018-02-11T10:52:46.506Z,99211.52
2018-02-11T10:53:49.000Z,99211.45
2018-02-11T10:54:51.478Z,99210.02
2018-02-11T10:55:53.934Z,99218.44
2018-02-11T10:56:56.391Z,99210.14
2018-02-11T10:57:58.868Z,99207.75
2018-02-11T10:59:01.364Z,99211.17
2018-02-11T11:00:03.835Z,99209.73
2018-02-11T11:01:06.295Z,99213.98
2018-02-11T11:02:08.767Z,99214.66
2018-02-11T11:03:11.243Z,99215.51
2018-02-11T11:04:13.852Z,99214.86
2018-02-11T11:05:16.353Z,99222.01
2018-02-11T11:06:18.815Z,99216.59
2018-02-11T11:07:21.271Z,99213.41
2018-02-11T11:08:23.727Z,99213.34
2018-02-11T11:09:26.206Z,99210.59
2018-02-11T11:10:28.681Z,99214.44
2018-02-11T11:11:31.153Z,99221.25
2018-02-11T11:12:33.608Z,99212.53
2018-02-11T11:13:36.067Z,99203.01
2018-02-11T11:14:38.701Z,99211.38
2018-02-11T11:15:41.846Z,99205.25
2018-02-11T11:16:44.329Z,99208.11
2018-02-11T11:17:46.794Z,99207.61
2018-02-11T11:18:49.273Z,99208.73
2018-02-11T11:19:51.773Z,99205.73
2018-02-11T11:20:54.256Z,99200.16
2018-02-11T11:21:56.739Z,99203.02
2018-02-11T11:22:59.212Z,99197.41
2018-02-11T11:24:01.690Z,99198.67
2018-02-11T11:25:04.189Z,99196.17
2018-02-11T11:26:06.666Z,99203.30
2018-02-11T11:27:09.155Z,99206.91
2018-02-11T11:28:11.625Z,99205.02
2018-02-11T11:29:14.108Z,99200.20
2018-02-11T11:30:16.611Z,99199.73
2018-02-11T11:31:19.089Z,99202.98
2018-02-11T11:32:21.566Z,99191.65
2018-02-11T11:33:24.031Z,99194.50
2018-02-11T11:34:26.507Z,99191.84
2018-02-11T11:35:29.005Z,99205.10
2018-02-11T11:36:31.485Z,99201.84
2018-02-11T11:37:33.960Z,99194.67
2018-02-11T11:38:36.419Z,99197.52
2018-02-11T11:39:38.886Z,99196.85
2018-02-11T11:40:41.390Z,99201.48
2018-02-11T11:41:43.863Z,99198.47
2018-02-11T11:42:46.336Z,99196.61
2018-02-11T11:43:48.804Z,99192.00
2018-02-11T11:44:51.277Z,99196.83
2018-02-11T11:45:53.777Z,99194.37
2018-02-11T11:46:56.293Z,99195.88
2018-02-11T11:47:58.755Z,99197.95
2018-02-11T11:49:01.241Z,99191.80
2018-02-11T11:50:03.706Z,99194.83
2018-02-11T11:51:06.193Z,99189.83
2018-02-11T11:52:08.675Z,99190.55
2018-02-11T11:53:11.158Z,99189.52
2018-02-11T11:54:13.657Z,99187.88
2018-02-11T11:55:16.144Z,99187.84
2018-02-11T11:56:18.669Z,99186.42
2018-02-11T11:57:21.157Z,99188.86
2018-02-11T11:58:23.614Z,99188.02
2018-02-11T11:59:26.166Z,99187.00
2018-02-11T12:00:28.640Z,99192.45
2018-02-11T12:01:31.122Z,99189.44
2018-02-11T12:02:33.593Z,99183.50
2018-02-11T12:03:36.055Z,99182.08
2018-02-11T12:04:38.515Z,99184.92
2018-02-11T12:05:40.988Z,99182.53
2018-02-11T12:06:43.478Z,99173.05
2018-02-11T12:07:45.943Z,99185.76
2018-02-11T12:08:48.403Z,99178.05
2018-02-11T12:09:50.881Z,99179.78
2018-02-11T12:10:53.346Z,99185.61
2018-02-11T12:11:55.840Z,99179.11
2018-02-11T12:12:58.299Z,99176.06
2018-02-11T12:14:00.773Z,99179.16